sensor_id;sensor_type;location;lat;lon;timestamp;pressure;altitude;pressure_sealevel;temperature;humidity
77739;BME280;66904;59.926;30.404;2023-06-22T00:00:40;101431.81;;;28.87;40.31
77739;BME280;66904;59.926;30.404;2023-06-22T00:05:42;101422.84;;;28.87;40.66
77739;BME280;66904;59.926;30.404;2023-06-22T00:10:44;101420.31;;;28.85;40.65
77739;BME280;66904;59.926;30.404;2023-06-22T00:15:45;101405.84;;;28.85;40.55
77739;BME280;66904;59.926;30.404;2023-06-22T00:20:45;101408.13;;;28.88;40.86
77739;BME280;66904;59.926;30.404;2023-06-22T00:25:46;101391.19;;;28.86;40.79
77739;BME280;66904;59.926;30.404;2023-06-22T00:30:48;101388.47;;;28.86;40.64
77739;BME280;66904;59.926;30.404;2023-06-22T00:35:49;101392.88;;;28.87;40.87
77739;BME280;66904;59.926;30.404;2023-06-22T00:40:52;101377.75;;;28.84;40.48
77739;BME280;66904;59.926;30.404;2023-06-22T00:45:55;101388.47;;;28.86;40.79
77739;BME280;66904;59.926;30.404;2023-06-22T00:50:57;101362.53;;;28.77;40.72
77739;BME280;66904;59.926;30.404;2023-06-22T00:55:57;101375.03;;;28.84;40.66
77739;BME280;66904;59.926;30.404;2023-06-22T01:01:00;101360.41;;;28.79;41.00
77739;BME280;66904;59.926;30.404;2023-06-22T01:06:07;101363.31;;;28.84;41.10
77739;BME280;66904;59.926;30.404;2023-06-22T01:11:20;101364.16;;;28.84;41.16
77739;BME280;66904;59.926;30.404;2023-06-22T01:16:25;101359.97;;;28.82;41.08
77739;BME280;66904;59.926;30.404;2023-06-22T01:21:30;101352.25;;;28.79;41.27
77739;BME280;66904;59.926;30.404;2023-06-22T01:27:05;101356.22;;;28.83;40.96
77739;BME280;66904;59.926;30.404;2023-06-22T01:32:03;101359.13;;;28.81;40.92
77739;BME280;66904;59.926;30.404;2023-06-22T01:37:05;101359.13;;;28.81;41.07
77739;BME280;66904;59.926;30.404;2023-06-22T01:42:06;101358.28;;;28.81;41.00
77739;BME280;66904;59.926;30.404;2023-06-22T01:47:07;101333.63;;;28.76;41.26
77739;BME280;66904;59.926;30.404;2023-06-22T01:52:08;101350.13;;;28.81;40.91
77739;BME280;66904;59.926;30.404;2023-06-22T01:57:09;101343.88;;;28.80;40.76
77739;BME280;66904;59.926;30.404;2023-06-22T02:02:12;101342.19;;;28.79;41.24
77739;BME280;66904;59.926;30.404;2023-06-22T02:07:17;101330.25;;;28.80;41.02
77739;BME280;66904;59.926;30.404;2023-06-22T02:12:22;101333.19;;;28.79;40.91
77739;BME280;66904;59.926;30.404;2023-06-22T02:17:26;101332.34;;;28.78;40.91
77739;BME280;66904;59.926;30.404;2023-06-22T02:22:26;101334.00;;;28.79;40.93
77739;BME280;66904;59.926;30.404;2023-06-22T02:27:27;101324.59;;;28.75;41.26
77739;BME280;66904;59.926;30.404;2023-06-22T02:32:27;101325.84;;;28.79;40.54
77739;BME280;66904;59.926;30.404;2023-06-22T02:37:28;101319.56;;;28.79;41.12
77739;BME280;66904;59.926;30.404;2023-06-22T02:42:29;101317.03;;;28.77;41.21
77739;BME280;66904;59.926;30.404;2023-06-22T02:47:30;101314.94;;;28.79;41.47
77739;BME280;66904;59.926;30.404;2023-06-22T02:52:31;101320.41;;;28.79;40.93
77739;BME280;66904;59.926;30.404;2023-06-22T02:57:31;101308.66;;;28.79;41.10
77739;BME280;66904;59.926;30.404;2023-06-22T03:02:31;101304.25;;;28.78;41.20
77739;BME280;66904;59.926;30.404;2023-06-22T03:07:32;101307.81;;;28.78;41.14
77739;BME280;66904;59.926;30.404;2023-06-22T03:12:33;101309.72;;;28.78;41.16
77739;BME280;66904;59.926;30.404;2023-06-22T03:17:35;101318.97;;;28.77;41.17
77739;BME280;66904;59.926;30.404;2023-06-22T03:22:36;101333.19;;;28.79;41.64
77739;BME280;66904;59.926;30.404;2023-06-22T03:27:37;101336.75;;;28.79;41.44
77739;BME280;66904;59.926;30.404;2023-06-22T03:32:38;101328.56;;;28.79;41.42
77739;BME280;66904;59.926;30.404;2023-06-22T03:37:38;101318.50;;;28.80;41.38
77739;BME280;66904;59.926;30.404;2023-06-22T03:42:39;101317.66;;;28.79;41.51
77739;BME280;66904;59.926;30.404;2023-06-22T03:47:39;101315.16;;;28.78;41.42
77739;BME280;66904;59.926;30.404;2023-06-22T03:52:40;101315.16;;;28.78;41.79
77739;BME280;66904;59.926;30.404;2023-06-22T03:57:40;101314.31;;;28.77;41.51
77739;BME280;66904;59.926;30.404;2023-06-22T04:02:41;101310.78;;;28.77;41.63
77739;BME280;66904;59.926;30.404;2023-06-22T04:07:42;101310.53;;;28.78;41.51
77739;BME280;66904;59.926;30.404;2023-06-22T04:12:42;101305.34;;;28.77;41.70
77739;BME280;66904;59.926;30.404;2023-06-22T04:17:43;101308.66;;;28.79;41.85
77739;BME280;66904;59.926;30.404;2023-06-22T04:22:43;101293.41;;;28.71;41.88
77739;BME280;66904;59.926;30.404;2023-06-22T04:27:46;101301.78;;;28.76;41.64
77739;BME280;66904;59.926;30.404;2023-06-22T04:32:46;101294.44;;;28.77;41.65
77739;BME280;66904;59.926;30.404;2023-06-22T04:37:58;101298.81;;;28.78;41.81
77739;BME280;66904;59.926;30.404;2023-06-22T04:42:59;101291.03;;;28.81;41.56
77739;BME280;66904;59.926;30.404;2023-06-22T04:48:02;101296.03;;;28.84;41.81
77739;BME280;66904;59.926;30.404;2023-06-22T04:53:03;101298.34;;;28.87;41.98
77739;BME280;66904;59.926;30.404;2023-06-22T04:58:05;101284.50;;;28.89;42.10
77739;BME280;66904;59.926;30.404;2023-06-22T05:03:06;101281.53;;;28.90;42.07
77739;BME280;66904;59.926;30.404;2023-06-22T05:08:06;101259.78;;;28.84;42.10
77739;BME280;66904;59.926;30.404;2023-06-22T05:13:07;101274.44;;;28.89;42.04
77739;BME280;66904;59.926;30.404;2023-06-22T05:18:08;101271.09;;;28.87;41.96
77739;BME280;66904;59.926;30.404;2023-06-22T05:23:08;101263.59;;;28.83;42.00
77739;BME280;66904;59.926;30.404;2023-06-22T05:28:09;101248.09;;;28.83;42.33
77739;BME280;66904;59.926;30.404;2023-06-22T05:33:11;101249.34;;;28.81;41.96
77739;BME280;66904;59.926;30.404;2023-06-22T05:38:12;101245.19;;;28.78;42.05
77739;BME280;66904;59.926;30.404;2023-06-22T05:43:12;101233.25;;;28.79;42.01
77739;BME280;66904;59.926;30.404;2023-06-22T05:48:13;101235.13;;;28.79;41.98
77739;BME280;66904;59.926;30.404;2023-06-22T05:53:14;101226.13;;;28.78;41.99
77739;BME280;66904;59.926;30.404;2023-06-22T05:58:14;101218.63;;;28.73;42.14
77739;BME280;66904;59.926;30.404;2023-06-22T06:03:15;101218.19;;;28.77;42.06
77739;BME280;66904;59.926;30.404;2023-06-22T06:08:17;101203.72;;;28.76;42.03
77739;BME280;66904;59.926;30.404;2023-06-22T06:13:17;101198.28;;;28.76;42.08
77739;BME280;66904;59.926;30.404;2023-06-22T06:18:18;101197.44;;;28.76;42.06
77739;BME280;66904;59.926;30.404;2023-06-22T06:23:18;101198.28;;;28.76;41.82
77739;BME280;66904;59.926;30.404;2023-06-22T06:28:19;101182.78;;;28.77;42.06
77739;BME280;66904;59.926;30.404;2023-06-22T06:33:31;101174.75;;;28.82;42.16
77739;BME280;66904;59.926;30.404;2023-06-22T06:38:31;101172.03;;;28.82;42.12
77739;BME280;66904;59.926;30.404;2023-06-22T06:43:32;101175.16;;;28.85;42.30
77739;BME280;66904;59.926;30.404;2023-06-22T06:48:32;101172.81;;;28.89;42.27
77739;BME280;66904;59.926;30.404;2023-06-22T06:53:33;101159.41;;;28.87;42.01
77739;BME280;66904;59.926;30.404;2023-06-22T06:58:33;101160.81;;;28.96;42.68
77739;BME280;66904;59.926;30.404;2023-06-22T07:03:34;101160.38;;;28.99;42.53
77739;BME280;66904;59.926;30.404;2023-06-22T07:08:34;101161.34;;;29.05;43.29
77739;BME280;66904;59.926;30.404;2023-06-22T07:13:40;101158.19;;;29.08;43.59
77739;BME280;66904;59.926;30.404;2023-06-22T07:18:40;101152.28;;;29.11;43.73
77739;BME280;66904;59.926;30.404;2023-06-22T07:23:41;101146.63;;;29.12;43.85
77739;BME280;66904;59.926;30.404;2023-06-22T07:28:41;101136.38;;;29.08;44.15
77739;BME280;66904;59.926;30.404;2023-06-22T07:33:42;101126.69;;;29.12;44.17
77739;BME280;66904;59.926;30.404;2023-06-22T07:38:42;101131.09;;;29.13;44.34
77739;BME280;66904;59.926;30.404;2023-06-22T07:43:43;101119.97;;;29.14;44.17
77739;BME280;66904;59.926;30.404;2023-06-22T07:48:43;101118.28;;;29.13;44.56
77739;BME280;66904;59.926;30.404;2023-06-22T07:53:44;101080.59;;;28.92;44.58
77739;BME280;66904;59.926;30.404;2023-06-22T07:58:45;101113.00;;;29.18;44.41
77739;BME280;66904;59.926;30.404;2023-06-22T08:03:48;101107.38;;;29.13;45.05
77739;BME280;66904;59.926;30.404;2023-06-22T08:08:49;101101.84;;;29.20;45.22
77739;BME280;66904;59.926;30.404;2023-06-22T08:13:49;101094.53;;;29.20;44.92
77739;BME280;66904;59.926;30.404;2023-06-22T08:18:50;101087.19;;;29.21;45.08
77739;BME280;66904;59.926;30.404;2023-06-22T08:23:50;101081.97;;;29.19;44.76
77739;BME280;66904;59.926;30.404;2023-06-22T08:28:51;101082.13;;;29.24;45.39
77739;BME280;66904;59.926;30.404;2023-06-22T08:33:52;101078.97;;;29.28;45.43
77739;BME280;66904;59.926;30.404;2023-06-22T08:38:53;101076.84;;;29.30;45.44
77739;BME280;66904;59.926;30.404;2023-06-22T08:43:54;101065.97;;;29.30;45.84
77739;BME280;66904;59.926;30.404;2023-06-22T08:48:54;101060.31;;;29.24;45.81
77739;BME280;66904;59.926;30.404;2023-06-22T08:53:55;101064.41;;;29.34;46.10
77739;BME280;66904;59.926;30.404;2023-06-22T08:58:55;101060.63;;;29.35;45.91
77739;BME280;66904;59.926;30.404;2023-06-22T09:03:56;101058.75;;;29.35;45.70
77739;BME280;66904;59.926;30.404;2023-06-22T09:08:58;101052.47;;;29.35;45.81
77739;BME280;66904;59.926;30.404;2023-06-22T09:14:01;101047.00;;;29.35;45.51
77739;BME280;66904;59.926;30.404;2023-06-22T09:19:01;101031.78;;;29.27;45.64
77739;BME280;66904;59.926;30.404;2023-06-22T09:24:02;101046.16;;;29.34;45.17
77739;BME280;66904;59.926;30.404;2023-06-22T09:29:05;101043.69;;;29.33;45.29
77739;BME280;66904;59.926;30.404;2023-06-22T09:34:06;101041.19;;;29.31;45.20
77739;BME280;66904;59.926;30.404;2023-06-22T09:39:06;101033.84;;;29.32;44.84
77739;BME280;66904;59.926;30.404;2023-06-22T09:44:07;101024.81;;;29.31;45.03
77739;BME280;66904;59.926;30.404;2023-06-22T09:49:07;101016.66;;;29.31;45.32
77739;BME280;66904;59.926;30.404;2023-06-22T09:54:08;101020.59;;;29.35;44.88
77739;BME280;66904;59.926;30.404;2023-06-22T09:59:08;101005.91;;;29.36;45.15
77739;BME280;66904;59.926;30.404;2023-06-22T10:04:23;101002.34;;;29.36;44.76
77739;BME280;66904;59.926;30.404;2023-06-22T10:09:40;100993.44;;;29.40;45.22
77739;BME280;66904;59.926;30.404;2023-06-22T10:14:40;100975.91;;;29.36;44.86
77739;BME280;66904;59.926;30.404;2023-06-22T10:20:00;100979.69;;;29.35;44.95
77739;BME280;66904;59.926;30.404;2023-06-22T10:25:09;100962.03;;;29.38;44.75
77739;BME280;66904;59.926;30.404;2023-06-22T10:30:11;100949.25;;;29.38;44.75
77739;BME280;66904;59.926;30.404;2023-06-22T10:35:15;100939.19;;;29.39;45.06
77739;BME280;66904;59.926;30.404;2023-06-22T10:40:17;100937.03;;;29.41;44.91
77739;BME280;66904;59.926;30.404;2023-06-22T10:45:18;100925.31;;;29.40;45.08
77739;BME280;66904;59.926;30.404;2023-06-22T10:50:19;100929.31;;;29.38;45.06
77739;BME280;66904;59.926;30.404;2023-06-22T10:55:20;100952.19;;;29.37;44.85
77739;BME280;66904;59.926;30.404;2023-06-22T11:00:21;100966.81;;;29.42;44.95
77739;BME280;66904;59.926;30.404;2023-06-22T11:05:22;100965.97;;;29.42;44.97
77739;BME280;66904;59.926;30.404;2023-06-22T11:10:22;100946.06;;;29.41;44.62
77739;BME280;66904;59.926;30.404;2023-06-22T11:15:24;100937.03;;;29.41;45.02
77739;BME280;66904;59.926;30.404;2023-06-22T11:20:25;100936.81;;;29.42;45.03
77739;BME280;66904;59.926;30.404;2023-06-22T11:25:25;100929.13;;;29.39;45.32
77739;BME280;66904;59.926;30.404;2023-06-22T11:30:26;100934.94;;;29.43;45.09
77739;BME280;66904;59.926;30.404;2023-06-22T11:35:26;100929.13;;;29.39;45.10
77739;BME280;66904;59.926;30.404;2023-06-22T11:40:27;100915.84;;;29.43;45.41
77739;BME280;66904;59.926;30.404;2023-06-22T11:45:27;100893.31;;;29.36;45.57
77739;BME280;66904;59.926;30.404;2023-06-22T11:50:28;100897.56;;;29.43;45.98
77739;BME280;66904;59.926;30.404;2023-06-22T11:55:30;100895.94;;;29.42;45.96
77739;BME280;66904;59.926;30.404;2023-06-22T12:00:30;100891.53;;;29.41;46.15
77739;BME280;66904;59.926;30.404;2023-06-22T12:05:31;100894.25;;;29.41;46.05
77739;BME280;66904;59.926;30.404;2023-06-22T12:10:32;100888.81;;;29.41;46.33
77739;BME280;66904;59.926;30.404;2023-06-22T12:15:32;100877.91;;;29.41;46.45
77739;BME280;66904;59.926;30.404;2023-06-22T12:20:33;100877.69;;;29.43;46.65
77739;BME280;66904;59.926;30.404;2023-06-22T12:25:34;100871.97;;;29.44;46.79
77739;BME280;66904;59.926;30.404;2023-06-22T12:30:37;100864.63;;;29.45;47.09
77739;BME280;66904;59.926;30.404;2023-06-22T12:35:38;100859.41;;;29.43;46.58
77739;BME280;66904;59.926;30.404;2023-06-22T12:40:38;100866.78;;;29.43;46.73
77739;BME280;66904;59.926;30.404;2023-06-22T12:45:39;100865.69;;;29.44;46.41
77739;BME280;66904;59.926;30.404;2023-06-22T12:50:40;100860.50;;;29.42;47.05
77739;BME280;66904;59.926;30.404;2023-06-22T12:55:41;100878.75;;;29.42;46.84
77739;BME280;66904;59.926;30.404;2023-06-22T13:00:41;100874.34;;;29.41;47.09
77739;BME280;66904;59.926;30.404;2023-06-22T13:05:42;100861.66;;;29.35;46.85
77739;BME280;66904;59.926;30.404;2023-06-22T13:10:42;100879.78;;;29.41;46.71
77739;BME280;66904;59.926;30.404;2023-06-22T13:15:43;100890.69;;;29.41;47.18
77739;BME280;66904;59.926;30.404;2023-06-22T13:20:43;100910.03;;;29.39;47.09
77739;BME280;66904;59.926;30.404;2023-06-22T13:25:45;100903.75;;;29.39;47.04
77739;BME280;66904;59.926;30.404;2023-06-22T13:30:46;100918.69;;;29.36;46.81
77739;BME280;66904;59.926;30.404;2023-06-22T13:35:47;100932.53;;;29.35;46.82
77739;BME280;66904;59.926;30.404;2023-06-22T13:40:48;100931.09;;;29.32;46.77
77739;BME280;66904;59.926;30.404;2023-06-22T13:45:49;100947.44;;;29.32;46.37
77739;BME280;66904;59.926;30.404;2023-06-22T13:50:50;100957.72;;;29.30;46.54
77739;BME280;66904;59.926;30.404;2023-06-22T13:55:50;100948.75;;;29.30;46.69
77739;BME280;66904;59.926;30.404;2023-06-22T14:00:51;100951.94;;;29.27;46.49
77739;BME280;66904;59.926;30.404;2023-06-22T14:05:51;100953.81;;;29.26;46.03
77739;BME280;66904;59.926;30.404;2023-06-22T14:10:54;100961.34;;;29.24;46.33
77739;BME280;66904;59.926;30.404;2023-06-22T14:15:55;100965.38;;;29.21;46.29
77739;BME280;66904;59.926;30.404;2023-06-22T14:20:55;100970.81;;;29.21;46.34
77739;BME280;66904;59.926;30.404;2023-06-22T14:25:56;100965.38;;;29.21;46.33
77739;BME280;66904;59.926;30.404;2023-06-22T14:30:56;100965.00;;;29.18;46.22
77739;BME280;66904;59.926;30.404;2023-06-22T14:35:57;100962.28;;;29.18;46.01
77739;BME280;66904;59.926;30.404;2023-06-22T14:40:57;100964.41;;;29.16;46.12
77739;BME280;66904;59.926;30.404;2023-06-22T14:45:58;100946.47;;;29.08;46.06
77739;BME280;66904;59.926;30.404;2023-06-22T14:50:58;100959.19;;;29.14;46.08
77739;BME280;66904;59.926;30.404;2023-06-22T14:56:00;100954.78;;;29.13;46.04
77739;BME280;66904;59.926;30.404;2023-06-22T15:01:02;100930.25;;;29.13;45.85
77739;BME280;66904;59.926;30.404;2023-06-22T15:06:03;100931.34;;;29.12;46.26
77739;BME280;66904;59.926;30.404;2023-06-22T15:11:04;100919.34;;;29.13;46.04
77739;BME280;66904;59.926;30.404;2023-06-22T15:16:05;100909.53;;;29.12;46.40
77739;BME280;66904;59.926;30.404;2023-06-22T15:21:05;100901.38;;;29.12;46.43
77739;BME280;66904;59.926;30.404;2023-06-22T15:26:06;100892.34;;;29.12;46.12
77739;BME280;66904;59.926;30.404;2023-06-22T15:31:06;100890.69;;;29.11;46.14
77739;BME280;66904;59.926;30.404;2023-06-22T15:36:07;100880.88;;;29.10;46.41
77739;BME280;66904;59.926;30.404;2023-06-22T15:41:08;100880.88;;;29.10;46.26
77739;BME280;66904;59.926;30.404;2023-06-22T15:46:09;100876.47;;;29.09;46.42
77739;BME280;66904;59.926;30.404;2023-06-22T15:51:09;100882.97;;;29.08;47.39
77739;BME280;66904;59.926;30.404;2023-06-22T15:56:10;100896.38;;;29.09;47.50
77739;BME280;66904;59.926;30.404;2023-06-22T16:01:11;100885.22;;;29.11;47.30
77739;BME280;66904;59.926;30.404;2023-06-22T16:06:18;100883.72;;;29.15;48.74
77739;BME280;66904;59.926;30.404;2023-06-22T16:11:27;100878.84;;;29.17;47.84
77739;BME280;66904;59.926;30.404;2023-06-22T16:16:28;100884.91;;;29.19;48.14
77739;BME280;66904;59.926;30.404;2023-06-22T16:21:28;100874.25;;;29.17;48.41
77739;BME280;66904;59.926;30.404;2023-06-22T16:26:38;100876.03;;;29.23;49.14
77739;BME280;66904;59.926;30.404;2023-06-22T16:31:40;100861.59;;;29.23;48.47
77739;BME280;66904;59.926;30.404;2023-06-22T16:36:40;100857.78;;;29.24;48.80
77739;BME280;66904;59.926;30.404;2023-06-22T16:41:41;100852.34;;;29.24;48.31
77739;BME280;66904;59.926;30.404;2023-06-22T16:46:44;100850.44;;;29.24;49.10
77739;BME280;66904;59.926;30.404;2023-06-22T16:51:44;100839.53;;;29.24;48.15
77739;BME280;66904;59.926;30.404;2023-06-22T16:56:46;100837.06;;;29.23;48.98
77739;BME280;66904;59.926;30.404;2023-06-22T17:01:51;100821.41;;;29.18;48.92
77739;BME280;66904;59.926;30.404;2023-06-22T17:06:57;100836.81;;;29.24;48.76
77739;BME280;66904;59.926;30.404;2023-06-22T17:12:00;100825.09;;;29.24;49.04
77739;BME280;66904;59.926;30.404;2023-06-22T17:17:02;100827.63;;;29.26;48.60
77739;BME280;66904;59.926;30.404;2023-06-22T17:22:03;100817.56;;;29.26;48.16
77739;BME280;66904;59.926;30.404;2023-06-22T17:27:03;100816.47;;;29.27;48.57
77739;BME280;66904;59.926;30.404;2023-06-22T17:32:04;100799.06;;;29.28;48.66
77739;BME280;66904;59.926;30.404;2023-06-22T17:37:05;100787.19;;;29.22;48.47
77739;BME280;66904;59.926;30.404;2023-06-22T17:42:06;100788.41;;;29.27;48.69
77739;BME280;66904;59.926;30.404;2023-06-22T17:47:07;100789.84;;;29.29;48.84
77739;BME280;66904;59.926;30.404;2023-06-22T17:52:16;100792.66;;;29.34;49.32
77739;BME280;66904;59.926;30.404;2023-06-22T17:57:17;100784.00;;;29.37;48.66
77739;BME280;66904;59.926;30.404;2023-06-22T18:02:24;100786.06;;;29.42;49.52
77739;BME280;66904;59.926;30.404;2023-06-22T18:07:26;100777.88;;;29.42;49.15
77739;BME280;66904;59.926;30.404;2023-06-22T18:12:27;100784.25;;;29.47;49.17
77739;BME280;66904;59.926;30.404;2023-06-22T18:17:28;100786.78;;;29.49;49.51
77739;BME280;66904;59.926;30.404;2023-06-22T18:22:29;100794.69;;;29.50;49.52
77739;BME280;66904;59.926;30.404;2023-06-22T18:27:32;100791.97;;;29.50;50.19
77739;BME280;66904;59.926;30.404;2023-06-22T18:32:35;100797.44;;;29.50;49.70
77739;BME280;66904;59.926;30.404;2023-06-22T18:37:39;100804.81;;;29.50;49.29
77739;BME280;66904;59.926;30.404;2023-06-22T18:42:46;100788.88;;;29.47;49.29
77739;BME280;66904;59.926;30.404;2023-06-22T18:53:04;100785.69;;;29.38;49.48
77739;BME280;66904;59.926;30.404;2023-06-22T18:58:37;100798.00;;;29.41;49.57
77739;BME280;66904;59.926;30.404;2023-06-22T19:03:37;100787.94;;;29.30;49.37
77739;BME280;66904;59.926;30.404;2023-06-22T19:09:12;100787.34;;;29.39;49.93
77739;BME280;66904;59.926;30.404;2023-06-22T19:14:35;100783.19;;;29.37;49.93
77739;BME280;66904;59.926;30.404;2023-06-22T19:19:45;100775.44;;;29.22;49.73
77739;BME280;66904;59.926;30.404;2023-06-22T19:24:52;100785.44;;;29.28;51.07
77739;BME280;66904;59.926;30.404;2023-06-22T19:29:55;100794.34;;;29.35;49.74
77739;BME280;66904;59.926;30.404;2023-06-22T19:34:56;100787.47;;;29.33;50.15
77739;BME280;66904;59.926;30.404;2023-06-22T19:39:57;100785.31;;;29.35;50.29
77739;BME280;66904;59.926;30.404;2023-06-22T19:44:58;100789.94;;;29.34;50.18
77739;BME280;66904;59.926;30.404;2023-06-22T19:49:59;100780.13;;;29.33;50.68
77739;BME280;66904;59.926;30.404;2023-06-22T19:55:00;100783.91;;;29.32;50.26
77739;BME280;66904;59.926;30.404;2023-06-22T20:00:00;100788.31;;;29.33;50.71
77739;BME280;66904;59.926;30.404;2023-06-22T20:05:08;100783.44;;;29.35;51.16
77739;BME280;66904;59.926;30.404;2023-06-22T20:10:14;100778.56;;;29.37;52.38
77739;BME280;66904;59.926;30.404;2023-06-22T20:20:23;100772.75;;;29.34;50.71
77739;BME280;66904;59.926;30.404;2023-06-22T20:25:24;100764.56;;;29.34;51.39
77739;BME280;66904;59.926;30.404;2023-06-22T20:30:25;100768.59;;;29.31;51.59
77739;BME280;66904;59.926;30.404;2023-06-22T20:35:26;100764.47;;;29.29;51.58
77739;BME280;66904;59.926;30.404;2023-06-22T20:40:27;100756.50;;;29.27;51.70
77739;BME280;66904;59.926;30.404;2023-06-22T20:45:28;100755.06;;;29.24;51.75
77739;BME280;66904;59.926;30.404;2023-06-22T20:50:29;100752.22;;;29.19;51.52
77739;BME280;66904;59.926;30.404;2023-06-22T20:55:31;100748.03;;;29.17;51.39
77739;BME280;66904;59.926;30.404;2023-06-22T21:00:37;100746.63;;;29.14;51.40
77739;BME280;66904;59.926;30.404;2023-06-22T21:05:39;100741.66;;;29.11;51.78
77739;BME280;66904;59.926;30.404;2023-06-22T21:10:42;100752.56;;;29.11;51.87
77739;BME280;66904;59.926;30.404;2023-06-22T21:15:43;100745.44;;;29.10;51.35
77739;BME280;66904;59.926;30.404;2023-06-22T21:20:44;100743.78;;;29.09;51.65
77739;BME280;66904;59.926;30.404;2023-06-22T21:25:44;100743.44;;;29.06;51.50
77739;BME280;66904;59.926;30.404;2023-06-22T21:30:45;100747.78;;;29.07;51.35
77739;BME280;66904;59.926;30.404;2023-06-22T21:35:45;100737.16;;;29.05;51.40
77739;BME280;66904;59.926;30.404;2023-06-22T21:40:46;100738.66;;;29.01;51.29
77739;BME280;66904;59.926;30.404;2023-06-22T21:45:46;100747.31;;;28.98;51.39
77739;BME280;66904;59.926;30.404;2023-06-22T21:50:47;100730.50;;;28.90;51.27
77739;BME280;66904;59.926;30.404;2023-06-22T21:55:47;100731.28;;;28.90;51.24
77739;BME280;66904;59.926;30.404;2023-06-22T22:00:57;100728.56;;;28.90;51.21
77739;BME280;66904;59.926;30.404;2023-06-22T22:05:57;100724.91;;;28.85;51.30
77739;BME280;66904;59.926;30.404;2023-06-22T22:10:58;100726.19;;;28.82;51.02
77739;BME280;66904;59.926;30.404;2023-06-22T22:15:59;100716.59;;;28.80;50.96
77739;BME280;66904;59.926;30.404;2023-06-22T22:20:59;100717.66;;;28.79;50.78
77739;BME280;66904;59.926;30.404;2023-06-22T22:26:00;100716.81;;;28.78;50.66
77739;BME280;66904;59.926;30.404;2023-06-22T22:31:00;100722.75;;;28.75;50.68
77739;BME280;66904;59.926;30.404;2023-06-22T22:36:02;100720.47;;;28.72;50.39
77739;BME280;66904;59.926;30.404;2023-06-22T22:41:05;100720.47;;;28.72;50.59
77739;BME280;66904;59.926;30.404;2023-06-22T22:46:05;100723.78;;;28.74;50.45
77739;BME280;66904;59.926;30.404;2023-06-22T22:51:06;100740.97;;;28.74;50.37
77739;BME280;66904;59.926;30.404;2023-06-22T22:56:09;100737.88;;;28.71;50.60
77739;BME280;66904;59.926;30.404;2023-06-22T23:01:10;100742.06;;;28.73;50.30
77739;BME280;66904;59.926;30.404;2023-06-22T23:06:10;100744.53;;;28.75;50.43
77739;BME280;66904;59.926;30.404;2023-06-22T23:11:11;100742.06;;;28.73;50.35
77739;BME280;66904;59.926;30.404;2023-06-22T23:16:11;100745.00;;;28.72;50.33
77739;BME280;66904;59.926;30.404;2023-06-22T23:21:12;100741.06;;;28.68;50.20
77739;BME280;66904;59.926;30.404;2023-06-22T23:26:12;100740.22;;;28.67;50.23
77739;BME280;66904;59.926;30.404;2023-06-22T23:31:14;100735.03;;;28.66;49.92
77739;BME280;66904;59.926;30.404;2023-06-22T23:36:15;100736.88;;;28.65;49.75
77739;BME280;66904;59.926;30.404;2023-06-22T23:41:17;100735.47;;;28.63;49.93
77739;BME280;66904;59.926;30.404;2023-06-22T23:46:17;100736.72;;;28.60;50.01
77739;BME280;66904;59.926;30.404;2023-06-22T23:51:20;100727.38;;;28.56;49.67
77739;BME280;66904;59.926;30.404;2023-06-22T23:56:20;100733.66;;;28.57;49.80
